Time;durP1;ratioP1;P1;durP2;ratioP2;P2;SDS_P1;SDS_P2;PMS_P1;PMS_P2;Temp;Humidity;BMP_temperature;BMP_pressure;BME280_temperature;BME280_humidity;BME280_pressure;Samples;Min_cycle;Max_cycle;Signal;HPM_P1;HPM_P2
2023/01/25 00:00:12;;;;;;;33.65;22.63;;;;;;;;;;4974286;28;20070;-84
2023/01/25 00:02:38;;;;;;;31.08;22.25;;;;;;;;;;5009036;28;20416;-84
2023/01/25 00:05:05;;;;;;;33.00;23.10;;;;;;;;;;4975071;28;20477;-84
2023/01/25 00:07:31;;;;;;;34.70;23.20;;;;;;;;;;4979083;28;20055;-84
2023/01/25 00:09:57;;;;;;;34.30;22.52;;;;;;;;;;4974376;28;20081;-84
2023/01/25 00:12:23;;;;;;;35.35;22.63;;;;;;;;;;4976608;28;20082;-84
2023/01/25 00:14:49;;;;;;;31.92;22.10;;;;;;;;;;5004441;28;20070;-84
2023/01/25 00:17:15;;;;;;;36.15;24.23;;;;;;;;;;4975647;28;20093;-84
2023/01/25 00:19:41;;;;;;;34.70;21.85;;;;;;;;;;5002703;28;20038;-84
2023/01/25 00:22:07;;;;;;;31.48;21.00;;;;;;;;;;4972159;28;20074;-84
2023/01/25 00:24:33;;;;;;;32.90;21.85;;;;;;;;;;4976425;28;20043;-84
2023/01/25 00:26:59;;;;;;;34.72;21.70;;;;;;;;;;4990866;28;20109;-84
2023/01/25 00:29:25;;;;;;;33.65;21.65;;;;;;;;;;4982195;28;21019;-84
2023/01/25 00:31:57;;;;;;;35.67;22.02;;;;;;;;;;4986222;28;21866;-85
2023/01/25 00:34:27;;;;;;;35.13;23.17;;;;;;;;;;4976499;28;20402;-84
2023/01/25 00:36:56;;;;;;;34.15;22.52;;;;;;;;;;5003153;28;20090;-84
2023/01/25 00:39:22;;;;;;;35.72;23.05;;;;;;;;;;4974596;28;20193;-84
2023/01/25 00:41:48;;;;;;;34.85;22.35;;;;;;;;;;4971287;28;20054;-84
2023/01/25 00:44:14;;;;;;;33.05;22.58;;;;;;;;;;4974229;28;20034;-84
2023/01/25 00:46:40;;;;;;;34.63;22.15;;;;;;;;;;5007941;28;21043;-84
2023/01/25 00:49:08;;;;;;;34.85;22.33;;;;;;;;;;5002166;28;20038;-84
2023/01/25 00:51:34;;;;;;;35.40;22.55;;;;;;;;;;5002826;28;20472;-84
2023/01/25 00:54:00;;;;;;;36.63;22.70;;;;;;;;;;4971485;28;20546;-84
2023/01/25 00:56:26;;;;;;;37.65;23.25;;;;;;;;;;4973437;28;20054;-85
2023/01/25 00:58:52;;;;;;;37.70;24.85;;;;;;;;;;4971921;28;20169;-84
2023/01/25 01:01:18;;;;;;;39.60;25.50;;;;;;;;;;4968951;28;20081;-84
2023/01/25 01:03:44;;;;;;;40.05;25.02;;;;;;;;;;4970354;28;20074;-84
2023/01/25 01:06:11;;;;;;;40.47;24.40;;;;;;;;;;5000829;28;20109;-83
2023/01/25 01:08:41;;;;;;;39.70;23.98;;;;;;;;;;4972759;28;20042;-84
2023/01/25 01:11:08;;;;;;;38.95;24.38;;;;;;;;;;4970027;28;20113;-84
2023/01/25 01:13:37;;;;;;;43.22;26.80;;;;;;;;;;4973214;28;20046;-84
2023/01/25 01:16:12;;;;;;;40.67;25.95;;;;;;;;;;4972314;28;20046;-84
2023/01/25 01:18:40;;;;;;;40.40;25.45;;;;;;;;;;4973737;28;20046;-84
2023/01/25 01:21:09;;;;;;;38.38;24.10;;;;;;;;;;5004234;28;20101;-84
2023/01/25 01:23:35;;;;;;;41.47;26.05;;;;;;;;;;4972669;28;20070;-84
2023/01/25 01:26:02;;;;;;;40.17;25.20;;;;;;;;;;5003890;28;20054;-84
2023/01/25 01:28:29;;;;;;;41.60;25.95;;;;;;;;;;4974105;28;20145;-84
2023/01/25 01:31:02;;;;;;;40.47;25.60;;;;;;;;;;4973268;28;20104;-84
2023/01/25 01:33:28;;;;;;;43.00;26.52;;;;;;;;;;5004454;28;20046;-84
2023/01/25 01:35:57;;;;;;;43.33;25.27;;;;;;;;;;4969936;28;20061;-84
2023/01/25 01:38:23;;;;;;;41.10;25.10;;;;;;;;;;4976324;28;20125;-84
2023/01/25 01:40:49;;;;;;;44.28;25.63;;;;;;;;;;4969926;28;20190;-84
2023/01/25 01:43:17;;;;;;;43.15;26.08;;;;;;;;;;4973378;28;20074;-84
2023/01/25 01:45:43;;;;;;;41.17;25.50;;;;;;;;;;5003373;28;20492;-83
2023/01/25 01:48:16;;;;;;;45.60;26.27;;;;;;;;;;4974166;28;20062;-83
2023/01/25 01:50:42;;;;;;;41.72;26.50;;;;;;;;;;4970632;28;20122;-84
2023/01/25 01:53:08;;;;;;;48.10;27.30;;;;;;;;;;4968530;28;20147;-84
2023/01/25 01:55:36;;;;;;;46.05;27.90;;;;;;;;;;5004866;28;20085;-84
2023/01/25 01:58:06;;;;;;;44.67;27.45;;;;;;;;;;4970302;28;20046;-85
2023/01/25 02:00:33;;;;;;;42.88;26.75;;;;;;;;;;4973395;28;20050;-84
2023/01/25 02:03:09;;;;;;;44.53;26.83;;;;;;;;;;4999932;28;20501;-84
2023/01/25 02:05:40;;;;;;;43.80;26.67;;;;;;;;;;4989560;28;20045;-84
2023/01/25 02:08:08;;;;;;;45.35;27.55;;;;;;;;;;4989946;28;20073;-84
2023/01/25 02:10:35;;;;;;;45.08;26.50;;;;;;;;;;4987489;28;20109;-84
2023/01/25 02:13:01;;;;;;;48.05;27.83;;;;;;;;;;4971054;28;20038;-84
2023/01/25 02:15:28;;;;;;;45.53;27.50;;;;;;;;;;5010268;28;20046;-85
2023/01/25 02:17:54;;;;;;;47.97;27.55;;;;;;;;;;4987558;28;20395;-84
2023/01/25 02:20:36;;;;;;;47.83;27.90;;;;;;;;;;4986692;28;20043;-85
2023/01/25 02:23:23;;;;;;;44.88;26.48;;;;;;;;;;4991869;28;20042;-85
2023/01/25 02:25:50;;;;;;;42.85;25.92;;;;;;;;;;4981312;28;20038;-85
2023/01/25 02:28:26;;;;;;;44.22;25.88;;;;;;;;;;4980686;28;20473;-85
2023/01/25 02:30:52;;;;;;;50.42;27.90;;;;;;;;;;5016639;28;20062;-85
2023/01/25 02:33:18;;;;;;;44.67;26.67;;;;;;;;;;4985179;28;20060;-85
2023/01/25 02:35:45;;;;;;;46.92;27.17;;;;;;;;;;5020479;28;20475;-85
2023/01/25 02:38:13;;;;;;;45.58;27.05;;;;;;;;;;4987881;28;20406;-84
2023/01/25 02:40:43;;;;;;;49.50;28.45;;;;;;;;;;4987307;28;20050;-84
2023/01/25 02:43:10;;;;;;;44.92;28.05;;;;;;;;;;5013943;28;20133;-85
2023/01/25 02:45:36;;;;;;;45.25;27.83;;;;;;;;;;4982272;28;20102;-85
2023/01/25 02:48:02;;;;;;;45.83;27.77;;;;;;;;;;5014594;28;20042;-86
2023/01/25 02:50:28;;;;;;;49.38;27.60;;;;;;;;;;4987638;28;20489;-86
2023/01/25 02:52:54;;;;;;;46.35;26.67;;;;;;;;;;4988514;28;20038;-85
2023/01/25 02:55:20;;;;;;;47.47;29.77;;;;;;;;;;5002174;28;20487;-86
2023/01/25 02:57:46;;;;;;;47.95;28.08;;;;;;;;;;4994878;28;20046;-86
2023/01/25 03:00:12;;;;;;;46.45;28.02;;;;;;;;;;5004682;28;20056;-85
2023/01/25 03:02:38;;;;;;;47.63;26.98;;;;;;;;;;4994935;28;20046;-85
2023/01/25 03:05:04;;;;;;;47.50;29.02;;;;;;;;;;4989347;28;20034;-86
2023/01/25 03:07:30;;;;;;;47.92;27.77;;;;;;;;;;5016806;28;21574;-85
2023/01/25 03:09:56;;;;;;;45.13;26.70;;;;;;;;;;4985108;28;20053;-86
2023/01/25 03:12:22;;;;;;;44.42;26.42;;;;;;;;;;4992060;28;20042;-86
2023/01/25 03:14:48;;;;;;;45.65;27.27;;;;;;;;;;5025717;28;20039;-86
2023/01/25 03:17:14;;;;;;;44.38;27.63;;;;;;;;;;4979173;28;20406;-85
2023/01/25 03:19:40;;;;;;;46.28;28.05;;;;;;;;;;4987981;28;20046;-85
2023/01/25 03:22:08;;;;;;;45.08;27.70;;;;;;;;;;4984818;28;20069;-85
2023/01/25 03:24:34;;;;;;;46.50;26.20;;;;;;;;;;4995900;28;20049;-85
2023/01/25 03:27:09;;;;;;;46.30;26.48;;;;;;;;;;4989986;28;20046;-85
2023/01/25 03:29:35;;;;;;;43.80;25.50;;;;;;;;;;5008062;28;20054;-86
2023/01/25 03:32:02;;;;;;;42.95;25.05;;;;;;;;;;4990772;28;20046;-86
2023/01/25 03:34:28;;;;;;;47.13;27.77;;;;;;;;;;4980437;28;20121;-85
2023/01/25 03:36:54;;;;;;;44.67;26.52;;;;;;;;;;4992010;28;20047;-85
2023/01/25 03:39:20;;;;;;;46.97;28.48;;;;;;;;;;4985642;28;20049;-86
2023/01/25 03:41:46;;;;;;;45.50;26.50;;;;;;;;;;4984791;28;20047;-85
2023/01/25 03:44:12;;;;;;;43.53;27.10;;;;;;;;;;4991363;28;20030;-86
2023/01/25 03:46:39;;;;;;;45.55;27.17;;;;;;;;;;4990669;28;20131;-84
2023/01/25 03:49:05;;;;;;;47.53;28.10;;;;;;;;;;4992345;28;20048;-86
2023/01/25 03:51:31;;;;;;;49.25;28.52;;;;;;;;;;5020589;28;20407;-86
2023/01/25 03:53:57;;;;;;;42.95;26.40;;;;;;;;;;4982224;28;20047;-86
2023/01/25 03:56:23;;;;;;;44.03;28.48;;;;;;;;;;4993223;28;20042;-85
2023/01/25 03:58:49;;;;;;;45.35;26.95;;;;;;;;;;4990327;28;20384;-86
2023/01/25 04:01:15;;;;;;;48.30;28.67;;;;;;;;;;4986694;28;20113;-86
2023/01/25 04:03:41;;;;;;;46.70;28.27;;;;;;;;;;4994368;28;20043;-86
2023/01/25 04:06:08;;;;;;;47.85;28.77;;;;;;;;;;4998199;28;20045;-85
2023/01/25 04:08:34;;;;;;;43.33;26.63;;;;;;;;;;4984667;28;20468;-85
2023/01/25 04:11:01;;;;;;;44.47;26.50;;;;;;;;;;4982859;28;20054;-85
2023/01/25 04:13:36;;;;;;;49.30;29.00;;;;;;;;;;5020700;28;20050;-85
2023/01/25 04:16:07;;;;;;;47.42;29.17;;;;;;;;;;4992142;28;20182;-85
2023/01/25 04:18:34;;;;;;;48.55;28.80;;;;;;;;;;4988154;28;20047;-85
2023/01/25 04:21:00;;;;;;;46.92;28.85;;;;;;;;;;4991506;28;21263;-86
2023/01/25 04:23:26;;;;;;;46.17;29.60;;;;;;;;;;5003540;28;20054;-85
2023/01/25 04:25:55;;;;;;;49.22;29.40;;;;;;;;;;4990498;28;20039;-86
2023/01/25 04:28:22;;;;;;;49.05;28.38;;;;;;;;;;4988234;28;20153;-85
2023/01/25 04:30:48;;;;;;;47.85;27.58;;;;;;;;;;4990780;28;20054;-85
2023/01/25 04:33:14;;;;;;;47.85;28.73;;;;;;;;;;4987925;28;20081;-85
2023/01/25 04:35:40;;;;;;;43.97;27.20;;;;;;;;;;4990857;28;20046;-86
2023/01/25 04:38:06;;;;;;;47.28;28.80;;;;;;;;;;4996093;28;20038;-85
2023/01/25 04:40:32;;;;;;;47.10;29.20;;;;;;;;;;5018950;28;20053;-86
2023/01/25 04:42:59;;;;;;;48.47;28.88;;;;;;;;;;4995954;28;20081;-85
2023/01/25 04:45:25;;;;;;;47.65;28.42;;;;;;;;;;4990894;28;20049;-85
2023/01/25 04:47:57;;;;;;;44.90;26.65;;;;;;;;;;4985477;28;20034;-84
2023/01/25 04:50:24;;;;;;;39.53;22.70;;;;;;;;;;4992367;28;20077;-85
2023/01/25 04:52:50;;;;;;;42.90;24.42;;;;;;;;;;4993962;28;20050;-86
2023/01/25 04:55:16;;;;;;;43.75;25.75;;;;;;;;;;4990797;28;20070;-85
2023/01/25 04:57:42;;;;;;;42.97;25.10;;;;;;;;;;5019577;28;20042;-85
2023/01/25 05:00:11;;;;;;;42.58;25.33;;;;;;;;;;4996733;28;20041;-85
2023/01/25 05:02:38;;;;;;;40.15;23.50;;;;;;;;;;5012900;28;20508;-85
2023/01/25 05:05:07;;;;;;;41.05;25.10;;;;;;;;;;5015569;28;20117;-85
2023/01/25 05:07:37;;;;;;;39.42;23.98;;;;;;;;;;4990140;28;20042;-86
2023/01/25 05:10:03;;;;;;;40.65;23.52;;;;;;;;;;4983157;28;20136;-86
2023/01/25 05:12:29;;;;;;;42.80;24.40;;;;;;;;;;4991118;28;20058;-86
2023/01/25 05:14:55;;;;;;;39.10;23.27;;;;;;;;;;4992275;28;20536;-86
2023/01/25 05:17:21;;;;;;;41.08;24.38;;;;;;;;;;4985310;28;20430;-86
2023/01/25 05:19:47;;;;;;;42.65;23.85;;;;;;;;;;4981273;28;20034;-85
2023/01/25 05:22:14;;;;;;;40.65;23.42;;;;;;;;;;4995672;28;20050;-86
2023/01/25 05:24:40;;;;;;;40.72;24.27;;;;;;;;;;5023227;28;20049;-85
2023/01/25 05:27:07;;;;;;;40.28;23.02;;;;;;;;;;4983387;28;20141;-85
2023/01/25 05:29:35;;;;;;;41.17;24.15;;;;;;;;;;4989959;28;20047;-85
2023/01/25 05:32:01;;;;;;;40.38;23.75;;;;;;;;;;5021283;28;20405;-86
2023/01/25 05:34:27;;;;;;;40.60;23.88;;;;;;;;;;4988626;28;20046;-85
2023/01/25 05:36:54;;;;;;;40.65;24.83;;;;;;;;;;5017674;28;20053;-85
2023/01/25 05:39:20;;;;;;;39.28;23.58;;;;;;;;;;4987167;28;20248;-85
2023/01/25 05:41:46;;;;;;;41.63;25.83;;;;;;;;;;4988508;28;20050;-86
2023/01/25 05:44:12;;;;;;;43.30;24.58;;;;;;;;;;4985584;28;20448;-85
2023/01/25 05:46:38;;;;;;;41.75;23.30;;;;;;;;;;4985395;28;20052;-85
2023/01/25 05:49:04;;;;;;;42.03;24.15;;;;;;;;;;4986946;28;20056;-86
2023/01/25 05:51:30;;;;;;;42.50;23.60;;;;;;;;;;4997250;28;20047;-86
2023/01/25 05:53:56;;;;;;;40.05;23.50;;;;;;;;;;4987869;28;20105;-86
2023/01/25 05:56:22;;;;;;;37.55;21.55;;;;;;;;;;4981851;28;20046;-87
2023/01/25 05:58:52;;;;;;;37.38;21.45;;;;;;;;;;4988616;28;20129;-86
2023/01/25 06:01:18;;;;;;;38.78;23.67;;;;;;;;;;4978657;28;20112;-86
2023/01/25 06:03:45;;;;;;;39.35;23.30;;;;;;;;;;4981859;28;20042;-86
2023/01/25 06:06:11;;;;;;;46.58;25.73;;;;;;;;;;4983030;28;20498;-85
2023/01/25 06:08:37;;;;;;;38.85;23.30;;;;;;;;;;5017423;28;20482;-85
2023/01/25 06:11:14;;;;;;;40.33;22.67;;;;;;;;;;4985255;28;20098;-86
2023/01/25 06:13:40;;;;;;;36.65;22.63;;;;;;;;;;4988480;28;20042;-85
2023/01/25 06:16:07;;;;;;;50.53;28.65;;;;;;;;;;4986436;28;20381;-85
2023/01/25 06:18:33;;;;;;;47.17;27.20;;;;;;;;;;5020187;28;20046;-86
2023/01/25 06:21:00;;;;;;;42.00;23.98;;;;;;;;;;4989841;28;20078;-86
2023/01/25 06:23:26;;;;;;;38.88;22.50;;;;;;;;;;4985358;28;20140;-85
2023/01/25 06:25:54;;;;;;;37.55;22.92;;;;;;;;;;4988606;28;20117;-85
2023/01/25 06:28:20;;;;;;;38.45;22.60;;;;;;;;;;4979447;28;20051;-85
2023/01/25 06:30:46;;;;;;;37.58;19.95;;;;;;;;;;4987140;28;20100;-86
2023/01/25 06:33:12;;;;;;;39.80;23.35;;;;;;;;;;4980370;28;20042;-86
2023/01/25 06:35:39;;;;;;;43.17;23.83;;;;;;;;;;4987981;28;20057;-85
2023/01/25 06:38:05;;;;;;;40.75;22.80;;;;;;;;;;4987940;28;20046;-85
2023/01/25 06:40:31;;;;;;;42.90;23.38;;;;;;;;;;5018224;28;20034;-86
2023/01/25 06:43:07;;;;;;;40.88;22.75;;;;;;;;;;4991549;28;20085;-86
2023/01/25 06:45:33;;;;;;;40.53;22.30;;;;;;;;;;5016320;28;20034;-85
2023/01/25 06:47:59;;;;;;;40.88;23.05;;;;;;;;;;4989028;28;20053;-86
2023/01/25 06:50:26;;;;;;;43.03;23.52;;;;;;;;;;4989754;28;20108;-86
2023/01/25 06:52:52;;;;;;;41.80;22.73;;;;;;;;;;5020632;28;20046;-85
2023/01/25 06:55:19;;;;;;;41.47;22.95;;;;;;;;;;4987118;28;20053;-82
2023/01/25 06:57:45;;;;;;;41.08;23.80;;;;;;;;;;4987933;28;20076;-81
2023/01/25 07:00:11;;;;;;;43.72;23.05;;;;;;;;;;4986689;28;20057;-81
2023/01/25 07:02:37;;;;;;;43.40;23.75;;;;;;;;;;4991094;28;20043;-81
2023/01/25 07:05:03;;;;;;;44.00;23.75;;;;;;;;;;4982688;28;20100;-81
2023/01/25 07:07:30;;;;;;;41.88;22.98;;;;;;;;;;4983757;28;20066;-81
2023/01/25 07:09:57;;;;;;;45.47;23.77;;;;;;;;;;4985731;28;20042;-81
2023/01/25 07:12:24;;;;;;;42.38;23.20;;;;;;;;;;5017016;28;20061;-81
2023/01/25 07:14:51;;;;;;;46.90;24.20;;;;;;;;;;4990525;28;20057;-82
2023/01/25 07:17:17;;;;;;;43.00;22.65;;;;;;;;;;4985414;28;20041;-82
2023/01/25 07:19:43;;;;;;;44.38;23.50;;;;;;;;;;4991173;28;20053;-82
2023/01/25 07:22:09;;;;;;;41.30;22.70;;;;;;;;;;5004765;28;20130;-82
2023/01/25 07:24:35;;;;;;;41.17;23.42;;;;;;;;;;4990922;28;20134;-81
2023/01/25 07:27:01;;;;;;;45.83;24.15;;;;;;;;;;4991666;28;20056;-82
2023/01/25 07:29:27;;;;;;;49.05;26.70;;;;;;;;;;4987798;28;20792;-82
2023/01/25 07:31:53;;;;;;;50.17;25.15;;;;;;;;;;4988057;28;20124;-81
2023/01/25 07:34:19;;;;;;;48.78;24.25;;;;;;;;;;4990405;28;20129;-82
2023/01/25 07:36:45;;;;;;;43.70;21.73;;;;;;;;;;4991397;28;20042;-82
2023/01/25 07:39:12;;;;;;;43.80;22.08;;;;;;;;;;4993626;28;20133;-81
2023/01/25 07:41:38;;;;;;;44.80;22.95;;;;;;;;;;4995645;28;20054;-81
2023/01/25 07:44:04;;;;;;;50.85;24.95;;;;;;;;;;4995077;28;20489;-82
2023/01/25 07:46:31;;;;;;;47.95;25.92;;;;;;;;;;4989274;28;20521;-81
2023/01/25 07:48:57;;;;;;;46.38;25.25;;;;;;;;;;5019376;28;20053;-82
2023/01/25 07:51:26;;;;;;;50.95;24.70;;;;;;;;;;5039143;28;20133;-81
2023/01/25 07:54:00;;;;;;;48.05;25.85;;;;;;;;;;5018136;28;20126;-81
2023/01/25 07:56:34;;;;;;;48.70;24.98;;;;;;;;;;5012234;28;20569;-81
2023/01/25 07:59:03;;;;;;;46.50;24.05;;;;;;;;;;4985186;28;20050;-80
2023/01/25 08:01:33;;;;;;;50.35;26.30;;;;;;;;;;5030225;28;20054;-80
2023/01/25 08:04:12;;;;;;;53.83;26.42;;;;;;;;;;5032186;28;20042;-80
2023/01/25 08:06:38;;;;;;;50.70;25.83;;;;;;;;;;4999222;28;20042;-83
2023/01/25 08:09:22;;;;;;;49.38;25.60;;;;;;;;;;4989310;28;20468;-81
2023/01/25 08:11:48;;;;;;;57.15;27.08;;;;;;;;;;5012451;28;20039;-82
2023/01/25 08:14:14;;;;;;;54.97;26.20;;;;;;;;;;5009455;28;20055;-81
2023/01/25 08:16:41;;;;;;;58.08;27.02;;;;;;;;;;4986612;28;20133;-81
2023/01/25 08:19:07;;;;;;;59.90;27.55;;;;;;;;;;5024269;28;20121;-81
2023/01/25 08:21:34;;;;;;;57.63;26.35;;;;;;;;;;4993162;28;20426;-81
2023/01/25 08:24:02;;;;;;;59.05;27.50;;;;;;;;;;4987848;28;20078;-79
2023/01/25 08:26:28;;;;;;;58.58;27.80;;;;;;;;;;4986055;28;20072;-82
2023/01/25 08:28:54;;;;;;;61.08;28.85;;;;;;;;;;4994004;28;20053;-80
2023/01/25 08:31:22;;;;;;;65.95;27.42;;;;;;;;;;4987681;28;20078;-82
2023/01/25 08:33:52;;;;;;;64.57;29.25;;;;;;;;;;5016422;28;20045;-82
2023/01/25 08:36:19;;;;;;;68.25;29.58;;;;;;;;;;4989035;28;20406;-83
2023/01/25 08:38:45;;;;;;;70.97;29.65;;;;;;;;;;4982512;28;20053;-83
2023/01/25 08:41:16;;;;;;;73.38;30.30;;;;;;;;;;5019152;28;20109;-82
2023/01/25 08:43:42;;;;;;;72.65;30.65;;;;;;;;;;4980980;28;20085;-82
2023/01/25 08:46:09;;;;;;;70.07;29.48;;;;;;;;;;4974498;28;20041;-84
2023/01/25 08:48:35;;;;;;;73.20;30.45;;;;;;;;;;4986451;28;20042;-85
2023/01/25 08:51:01;;;;;;;71.32;29.45;;;;;;;;;;4990500;28;20521;-84
2023/01/25 08:53:28;;;;;;;73.43;31.77;;;;;;;;;;4988127;28;20045;-85
2023/01/25 08:55:54;;;;;;;74.18;31.70;;;;;;;;;;4990820;28;20082;-85
2023/01/25 08:58:21;;;;;;;73.85;30.75;;;;;;;;;;5004037;28;20102;-84
2023/01/25 09:00:48;;;;;;;77.45;32.05;;;;;;;;;;4990133;28;20042;-85
2023/01/25 09:03:14;;;;;;;76.22;31.95;;;;;;;;;;4994956;28;20126;-84
2023/01/25 09:05:40;;;;;;;92.45;35.55;;;;;;;;;;5014481;28;20043;-84
2023/01/25 09:08:09;;;;;;;75.38;33.45;;;;;;;;;;4989732;28;20115;-84
2023/01/25 09:10:35;;;;;;;74.60;33.40;;;;;;;;;;5015373;28;20053;-84
2023/01/25 09:13:01;;;;;;;96.53;35.03;;;;;;;;;;4981414;28;20576;-84
2023/01/25 09:15:30;;;;;;;84.75;36.17;;;;;;;;;;4995600;28;20496;-84
2023/01/25 09:17:56;;;;;;;97.28;36.38;;;;;;;;;;4980494;28;20069;-84
2023/01/25 09:20:23;;;;;;;92.85;37.55;;;;;;;;;;5017992;28;20050;-84
2023/01/25 09:22:49;;;;;;;92.72;37.25;;;;;;;;;;4991718;28;20414;-85
2023/01/25 09:25:15;;;;;;;102.03;39.05;;;;;;;;;;4988376;28;20073;-84
2023/01/25 09:27:41;;;;;;;101.18;38.65;;;;;;;;;;5020057;28;20065;-84
2023/01/25 09:30:10;;;;;;;97.20;36.90;;;;;;;;;;4989027;28;20486;-84
2023/01/25 09:32:36;;;;;;;92.53;36.67;;;;;;;;;;4989312;28;20093;-85
2023/01/25 09:35:03;;;;;;;93.03;35.08;;;;;;;;;;4987317;28;20566;-84
2023/01/25 09:37:29;;;;;;;99.15;36.95;;;;;;;;;;5018998;28;20108;-84
2023/01/25 09:39:55;;;;;;;103.95;39.70;;;;;;;;;;4983056;28;20042;-83
2023/01/25 09:42:48;;;;;;;109.15;38.75;;;;;;;;;;4986744;28;20053;-83
2023/01/25 09:45:19;;;;;;;97.72;35.75;;;;;;;;;;4992391;28;20557;-85
2023/01/25 09:47:49;;;;;;;102.68;39.75;;;;;;;;;;4984801;28;20052;-86
2023/01/25 09:50:24;;;;;;;91.50;38.47;;;;;;;;;;4979531;28;20164;-85
2023/01/25 09:52:52;;;;;;;96.65;38.75;;;;;;;;;;4984747;28;20054;-86
2023/01/25 09:55:21;;;;;;;104.60;40.28;;;;;;;;;;4993132;28;20462;-82
2023/01/25 09:57:49;;;;;;;100.68;38.40;;;;;;;;;;4984561;28;20065;-83
2023/01/25 10:00:31;;;;;;;97.72;38.55;;;;;;;;;;4981683;28;20054;-84
2023/01/25 10:02:57;;;;;;;96.57;37.90;;;;;;;;;;4970428;28;20085;-82
2023/01/25 10:05:27;;;;;;;99.25;39.03;;;;;;;;;;5020251;28;20053;-84
2023/01/25 10:07:56;;;;;;;108.57;41.20;;;;;;;;;;5008766;28;20485;-84
2023/01/25 10:10:38;;;;;;;93.97;37.80;;;;;;;;;;5008551;28;20109;-84
2023/01/25 10:13:09;;;;;;;87.90;37.58;;;;;;;;;;5003014;28;20052;-84
2023/01/25 10:15:43;;;;;;;99.10;40.40;;;;;;;;;;4975443;28;20116;-84
2023/01/25 10:18:09;;;;;;;84.60;36.78;;;;;;;;;;4978898;28;20065;-82
2023/01/25 10:20:38;;;;;;;85.22;37.20;;;;;;;;;;4988187;28;20042;-84
2023/01/25 10:23:18;;;;;;;86.88;36.22;;;;;;;;;;5022690;28;20062;-83
2023/01/25 10:25:44;;;;;;;90.03;36.58;;;;;;;;;;4996982;28;20486;-84
2023/01/25 10:28:30;;;;;;;80.93;38.55;;;;;;;;;;5011783;28;20061;-84
2023/01/25 10:31:04;;;;;;;86.95;39.25;;;;;;;;;;4985798;28;20398;-84
2023/01/25 10:33:35;;;;;;;85.28;38.13;;;;;;;;;;4990411;28;20490;-85
2023/01/25 10:36:02;;;;;;;82.60;34.85;;;;;;;;;;4979851;28;20050;-85
2023/01/25 10:38:41;;;;;;;78.88;34.83;;;;;;;;;;4990482;28;21776;-85
2023/01/25 10:41:11;;;;;;;74.63;34.42;;;;;;;;;;4976056;28;20046;-83
2023/01/25 10:43:38;;;;;;;86.30;36.60;;;;;;;;;;4974828;28;20046;-84
2023/01/25 10:46:04;;;;;;;83.45;39.28;;;;;;;;;;4974078;28;20200;-85
2023/01/25 10:48:33;;;;;;;82.82;36.35;;;;;;;;;;5008704;28;20051;-82
2023/01/25 10:51:02;;;;;;;81.57;37.30;;;;;;;;;;4989591;28;20516;-87
2023/01/25 10:53:33;;;;;;;76.00;34.90;;;;;;;;;;4983038;28;20260;-86
2023/01/25 10:56:02;;;;;;;;;;;;;;;;;;4983847;28;20043;-86
2023/01/25 10:58:29;;;;;;;71.40;33.03;;;;;;;;;;4977849;28;19932;-84
2023/01/25 11:00:55;;;;;;;66.15;32.10;;;;;;;;;;5011754;28;20399;-87
2023/01/25 11:03:21;;;;;;;60.55;28.48;;;;;;;;;;4978687;28;20391;-84
2023/01/25 11:05:54;;;;;;;65.35;33.72;;;;;;;;;;5011984;28;20049;-83
2023/01/25 11:08:25;;;;;;;63.50;30.17;;;;;;;;;;4989982;28;20054;-85
2023/01/25 11:10:55;;;;;;;68.45;34.50;;;;;;;;;;4985096;28;20122;-85
2023/01/25 11:13:22;;;;;;;68.88;32.35;;;;;;;;;;4989178;28;20054;-82
2023/01/25 11:15:55;;;;;;;80.07;36.08;;;;;;;;;;4982164;28;20453;-86
2023/01/25 11:18:21;;;;;;;74.03;34.92;;;;;;;;;;4977559;28;20061;-84
2023/01/25 11:20:47;;;;;;;76.47;34.75;;;;;;;;;;4987158;28;20047;-86
2023/01/25 11:23:24;;;;;;;66.97;32.58;;;;;;;;;;5022533;28;20621;-81
2023/01/25 11:25:51;;;;;;;59.75;29.45;;;;;;;;;;4992700;28;20042;-83
2023/01/25 11:28:17;;;;;;;56.65;29.70;;;;;;;;;;4984369;28;20061;-87
2023/01/25 11:30:43;;;;;;;72.55;33.78;;;;;;;;;;4976668;28;20133;-84
2023/01/25 11:33:11;;;;;;;59.33;28.67;;;;;;;;;;4983865;28;20034;-83
2023/01/25 11:35:41;;;;;;;64.82;31.70;;;;;;;;;;5009134;28;20109;-82
2023/01/25 11:38:07;;;;;;;62.85;30.83;;;;;;;;;;4982472;28;20038;-83
2023/01/25 11:40:37;;;;;;;66.13;31.05;;;;;;;;;;4978589;28;20046;-82
2023/01/25 11:43:21;;;;;;;63.33;30.88;;;;;;;;;;4995605;28;20050;-82
2023/01/25 11:45:50;;;;;;;66.00;31.73;;;;;;;;;;4997092;28;20046;-82
2023/01/25 11:48:16;;;;;;;61.67;28.65;;;;;;;;;;4996113;28;20125;-83
2023/01/25 11:50:50;;;;;;;68.13;32.88;;;;;;;;;;4991822;28;20513;-82
2023/01/25 11:53:19;;;;;;;72.68;33.95;;;;;;;;;;5023634;28;20054;-83
2023/01/25 11:55:49;;;;;;;64.60;31.08;;;;;;;;;;4989780;28;20048;-84
2023/01/25 11:58:34;;;;;;;67.28;32.35;;;;;;;;;;4979072;28;20092;-85
2023/01/25 12:01:00;;;;;;;62.90;28.35;;;;;;;;;;4994782;28;20046;-85
2023/01/25 12:03:35;;;;;;;70.78;33.85;;;;;;;;;;5007129;28;20057;-84
2023/01/25 12:06:04;;;;;;;64.68;30.27;;;;;;;;;;4982461;28;20049;-83
2023/01/25 12:08:39;;;;;;;67.35;33.83;;;;;;;;;;5018736;28;20088;-83
2023/01/25 12:11:11;;;;;;;61.95;31.23;;;;;;;;;;5008351;28;20054;-84
2023/01/25 12:13:54;;;;;;;63.00;30.20;;;;;;;;;;4990552;28;20524;-82
2023/01/25 12:16:28;;;;;;;67.20;31.90;;;;;;;;;;4986530;28;20402;-83
2023/01/25 12:19:13;;;;;;;66.35;28.50;;;;;;;;;;4992126;28;20054;-83
2023/01/25 12:21:39;;;;;;;67.63;33.47;;;;;;;;;;4994954;28;20172;-81
2023/01/25 12:24:11;;;;;;;63.15;31.73;;;;;;;;;;5011373;28;20126;-87
2023/01/25 12:26:46;;;;;;;63.38;31.88;;;;;;;;;;4997692;28;20042;-86
2023/01/25 12:29:19;;;;;;;60.67;28.88;;;;;;;;;;4971771;28;20494;-84
2023/01/25 12:31:50;;;;;;;62.47;30.50;;;;;;;;;;5014085;28;20066;-87
2023/01/25 12:34:25;;;;;;;62.38;28.77;;;;;;;;;;4979657;28;20117;-86
2023/01/25 12:36:51;;;;;;;67.35;32.03;;;;;;;;;;5008826;28;20058;-87
2023/01/25 12:39:23;;;;;;;57.22;27.50;;;;;;;;;;5010024;28;20035;-80
2023/01/25 12:41:58;;;;;;;62.47;31.38;;;;;;;;;;5016710;28;20055;-85
2023/01/25 12:44:30;;;;;;;66.13;31.08;;;;;;;;;;4979581;28;22039;-84
2023/01/25 12:47:04;;;;;;;63.17;31.05;;;;;;;;;;4977054;28;20046;-84
2023/01/25 12:49:37;;;;;;;63.75;31.23;;;;;;;;;;4981877;28;20066;-85
2023/01/25 12:52:07;;;;;;;58.67;28.70;;;;;;;;;;5010650;28;20058;-83
2023/01/25 12:54:36;;;;;;;56.60;29.25;;;;;;;;;;4979186;28;20074;-85
2023/01/25 12:57:28;;;;;;;59.00;30.42;;;;;;;;;;4982354;28;20085;-85
2023/01/25 12:59:58;;;;;;;58.85;30.20;;;;;;;;;;4978702;28;20050;-85
2023/01/25 13:02:30;;;;;;;58.95;28.02;;;;;;;;;;4981137;28;20186;-85
2023/01/25 13:05:15;;;;;;;61.38;29.48;;;;;;;;;;4991610;28;20039;-85
2023/01/25 13:08:00;;;;;;;63.53;31.65;;;;;;;;;;4980220;28;20153;-84
2023/01/25 13:10:29;;;;;;;61.10;30.05;;;;;;;;;;4980207;28;20201;-84
2023/01/25 13:13:03;;;;;;;59.17;29.70;;;;;;;;;;5007791;28;20047;-83
2023/01/25 13:15:35;;;;;;;65.18;33.60;;;;;;;;;;5009394;28;20097;-82
2023/01/25 13:18:01;;;;;;;65.40;32.70;;;;;;;;;;5005369;28;20568;-84
2023/01/25 13:20:39;;;;;;;67.75;33.38;;;;;;;;;;5011458;28;20046;-86
2023/01/25 13:23:25;;;;;;;60.42;30.30;;;;;;;;;;5014975;28;20148;-84
2023/01/25 13:25:51;;;;;;;62.22;30.58;;;;;;;;;;4992796;28;20050;-84
2023/01/25 13:28:39;;;;;;;61.70;31.15;;;;;;;;;;5008984;28;20137;-84
2023/01/25 13:31:05;;;;;;;62.22;32.50;;;;;;;;;;5005465;28;20057;-81
2023/01/25 13:33:33;;;;;;;63.15;31.77;;;;;;;;;;4981333;28;20054;-83
2023/01/25 13:36:19;;;;;;;63.60;32.33;;;;;;;;;;5011603;28;20045;-82
2023/01/25 13:38:45;;;;;;;63.88;32.20;;;;;;;;;;5018378;28;20406;-81
2023/01/25 13:41:15;;;;;;;61.40;32.45;;;;;;;;;;5004717;28;20067;-81
2023/01/25 13:43:43;;;;;;;65.78;33.85;;;;;;;;;;4975254;28;20038;-81
2023/01/25 13:46:14;;;;;;;58.42;29.20;;;;;;;;;;4993730;28;20113;-83
2023/01/25 13:48:49;;;;;;;61.58;31.52;;;;;;;;;;5020193;28;20050;-84
2023/01/25 13:51:16;;;;;;;60.17;33.10;;;;;;;;;;5006414;28;20054;-83
2023/01/25 13:53:44;;;;;;;60.55;29.27;;;;;;;;;;5016857;28;20046;-83
2023/01/25 13:56:33;;;;;;;59.42;30.23;;;;;;;;;;4982954;28;20050;-82
2023/01/25 13:58:59;;;;;;;62.70;32.75;;;;;;;;;;4978643;28;20035;-83
2023/01/25 14:01:25;;;;;;;60.47;30.98;;;;;;;;;;4976841;28;20062;-83
2023/01/25 14:03:51;;;;;;;60.25;30.80;;;;;;;;;;4976385;28;20068;-84
2023/01/25 14:06:19;;;;;;;60.22;30.67;;;;;;;;;;5008746;28;21964;-83
2023/01/25 14:08:45;;;;;;;60.53;30.73;;;;;;;;;;5010910;28;20046;-83
2023/01/25 14:11:17;;;;;;;64.03;31.77;;;;;;;;;;5008626;28;20050;-82
2023/01/25 14:13:55;;;;;;;65.80;33.47;;;;;;;;;;4972294;28;20102;-82
2023/01/25 14:16:21;;;;;;;61.47;31.23;;;;;;;;;;5009637;28;20050;-84
2023/01/25 14:18:48;;;;;;;59.63;29.48;;;;;;;;;;4980890;28;20038;-83
2023/01/25 14:21:18;;;;;;;56.10;29.60;;;;;;;;;;4977473;28;20046;-82
2023/01/25 14:23:44;;;;;;;59.78;32.65;;;;;;;;;;4975459;28;20089;-83